sensor_id;sensor_type;location;lat;lon;timestamp;P1;durP1;ratioP1;P2;durP2;ratioP2
45694;SDS011;31408;45.468;9.124;2022-12-17T00:00:44;35.10;;;19.75;;
45694;SDS011;31408;45.468;9.124;2022-12-17T00:03:28;37.80;;;18.52;;
45694;SDS011;31408;45.468;9.124;2022-12-17T00:06:12;44.83;;;19.63;;
45694;SDS011;31408;45.468;9.124;2022-12-17T00:08:56;37.10;;;19.65;;
45694;SDS011;31408;45.468;9.124;2022-12-17T00:11:40;41.30;;;18.92;;
45694;SDS011;31408;45.468;9.124;2022-12-17T00:14:24;38.78;;;18.80;;
45694;SDS011;31408;45.468;9.124;2022-12-17T00:17:08;38.22;;;20.10;;
45694;SDS011;31408;45.468;9.124;2022-12-17T00:19:52;42.10;;;20.70;;
45694;SDS011;31408;45.468;9.124;2022-12-17T00:22:36;43.33;;;19.48;;
45694;SDS011;31408;45.468;9.124;2022-12-17T00:25:20;44.60;;;19.40;;
45694;SDS011;31408;45.468;9.124;2022-12-17T00:28:08;42.75;;;19.77;;
45694;SDS011;31408;45.468;9.124;2022-12-17T00:30:55;43.05;;;21.50;;
45694;SDS011;31408;45.468;9.124;2022-12-17T00:33:39;39.90;;;20.52;;
45694;SDS011;31408;45.468;9.124;2022-12-17T00:36:23;33.33;;;19.35;;
45694;SDS011;31408;45.468;9.124;2022-12-17T00:39:07;38.38;;;18.60;;
45694;SDS011;31408;45.468;9.124;2022-12-17T00:41:51;35.55;;;17.88;;
45694;SDS011;31408;45.468;9.124;2022-12-17T00:44:35;40.40;;;19.42;;
45694;SDS011;31408;45.468;9.124;2022-12-17T00:47:19;40.10;;;17.33;;
45694;SDS011;31408;45.468;9.124;2022-12-17T00:50:03;39.75;;;19.08;;
45694;SDS011;31408;45.468;9.124;2022-12-17T00:52:50;37.95;;;17.42;;
45694;SDS011;31408;45.468;9.124;2022-12-17T00:55:35;36.17;;;16.25;;
45694;SDS011;31408;45.468;9.124;2022-12-17T00:58:19;36.78;;;17.23;;
45694;SDS011;31408;45.468;9.124;2022-12-17T01:01:03;38.17;;;17.70;;
45694;SDS011;31408;45.468;9.124;2022-12-17T01:03:47;38.67;;;16.67;;
45694;SDS011;31408;45.468;9.124;2022-12-17T01:06:32;34.83;;;16.70;;
45694;SDS011;31408;45.468;9.124;2022-12-17T01:09:16;34.75;;;15.80;;
45694;SDS011;31408;45.468;9.124;2022-12-17T01:12:00;31.92;;;17.00;;
45694;SDS011;31408;45.468;9.124;2022-12-17T01:14:44;36.25;;;17.80;;
45694;SDS011;31408;45.468;9.124;2022-12-17T01:17:28;34.47;;;17.20;;
45694;SDS011;31408;45.468;9.124;2022-12-17T01:20:12;29.75;;;15.63;;
45694;SDS011;31408;45.468;9.124;2022-12-17T01:22:56;35.40;;;16.45;;
45694;SDS011;31408;45.468;9.124;2022-12-17T01:25:40;34.13;;;15.23;;
45694;SDS011;31408;45.468;9.124;2022-12-17T01:28:24;32.85;;;16.55;;
45694;SDS011;31408;45.468;9.124;2022-12-17T01:31:09;32.05;;;15.88;;
45694;SDS011;31408;45.468;9.124;2022-12-17T01:33:53;39.85;;;18.30;;
45694;SDS011;31408;45.468;9.124;2022-12-17T01:36:37;33.40;;;16.08;;
45694;SDS011;31408;45.468;9.124;2022-12-17T01:39:21;32.78;;;15.75;;
45694;SDS011;31408;45.468;9.124;2022-12-17T01:42:10;31.15;;;13.27;;
45694;SDS011;31408;45.468;9.124;2022-12-17T01:44:55;33.65;;;15.02;;
45694;SDS011;31408;45.468;9.124;2022-12-17T01:47:52;31.83;;;13.77;;
45694;SDS011;31408;45.468;9.124;2022-12-17T01:50:43;32.45;;;14.38;;
45694;SDS011;31408;45.468;9.124;2022-12-17T01:53:30;34.17;;;15.35;;
45694;SDS011;31408;45.468;9.124;2022-12-17T01:56:17;34.00;;;15.98;;
45694;SDS011;31408;45.468;9.124;2022-12-17T01:59:02;31.80;;;15.88;;
45694;SDS011;31408;45.468;9.124;2022-12-17T02:01:47;33.97;;;13.98;;
45694;SDS011;31408;45.468;9.124;2022-12-17T02:04:32;33.90;;;14.27;;
45694;SDS011;31408;45.468;9.124;2022-12-17T02:13:18;34.67;;;14.52;;
45694;SDS011;31408;45.468;9.124;2022-12-17T02:16:07;32.63;;;14.77;;
45694;SDS011;31408;45.468;9.124;2022-12-17T02:19:06;30.58;;;14.07;;
45694;SDS011;31408;45.468;9.124;2022-12-17T02:21:57;38.15;;;16.52;;
45694;SDS011;31408;45.468;9.124;2022-12-17T02:24:54;35.67;;;15.50;;
45694;SDS011;31408;45.468;9.124;2022-12-17T02:27:43;37.63;;;15.82;;
45694;SDS011;31408;45.468;9.124;2022-12-17T02:30:28;37.97;;;14.43;;
45694;SDS011;31408;45.468;9.124;2022-12-17T02:33:12;32.38;;;14.25;;
45694;SDS011;31408;45.468;9.124;2022-12-17T02:35:58;33.03;;;14.77;;
45694;SDS011;31408;45.468;9.124;2022-12-17T02:38:46;37.75;;;15.50;;
45694;SDS011;31408;45.468;9.124;2022-12-17T02:41:35;32.60;;;13.93;;
45694;SDS011;31408;45.468;9.124;2022-12-17T02:44:23;35.15;;;13.18;;
45694;SDS011;31408;45.468;9.124;2022-12-17T02:47:09;31.60;;;13.68;;
45694;SDS011;31408;45.468;9.124;2022-12-17T02:49:54;25.92;;;10.80;;
45694;SDS011;31408;45.468;9.124;2022-12-17T02:52:44;30.50;;;13.73;;
45694;SDS011;31408;45.468;9.124;2022-12-17T02:55:30;30.50;;;12.60;;
45694;SDS011;31408;45.468;9.124;2022-12-17T02:58:15;26.02;;;10.10;;
45694;SDS011;31408;45.468;9.124;2022-12-17T03:00:59;24.58;;;11.13;;
45694;SDS011;31408;45.468;9.124;2022-12-17T03:03:43;28.15;;;10.40;;
45694;SDS011;31408;45.468;9.124;2022-12-17T03:06:27;34.33;;;12.93;;
45694;SDS011;31408;45.468;9.124;2022-12-17T03:09:11;31.27;;;11.50;;
45694;SDS011;31408;45.468;9.124;2022-12-17T03:11:55;22.77;;;10.73;;
45694;SDS011;31408;45.468;9.124;2022-12-17T03:14:39;26.50;;;10.65;;
45694;SDS011;31408;45.468;9.124;2022-12-17T03:17:23;31.38;;;11.50;;
45694;SDS011;31408;45.468;9.124;2022-12-17T03:20:07;24.35;;;10.02;;
45694;SDS011;31408;45.468;9.124;2022-12-17T03:22:57;25.13;;;10.75;;
45694;SDS011;31408;45.468;9.124;2022-12-17T03:25:44;24.92;;;10.38;;
45694;SDS011;31408;45.468;9.124;2022-12-17T03:28:28;27.88;;;11.07;;
45694;SDS011;31408;45.468;9.124;2022-12-17T03:31:12;25.77;;;9.68;;
45694;SDS011;31408;45.468;9.124;2022-12-17T03:33:56;27.73;;;12.02;;
45694;SDS011;31408;45.468;9.124;2022-12-17T03:36:40;25.58;;;9.63;;
45694;SDS011;31408;45.468;9.124;2022-12-17T03:39:24;23.50;;;10.48;;
45694;SDS011;31408;45.468;9.124;2022-12-17T03:42:08;26.25;;;9.93;;
45694;SDS011;31408;45.468;9.124;2022-12-17T03:44:52;23.92;;;9.52;;
45694;SDS011;31408;45.468;9.124;2022-12-17T03:47:36;27.65;;;11.07;;
45694;SDS011;31408;45.468;9.124;2022-12-17T03:50:20;30.15;;;10.43;;
45694;SDS011;31408;45.468;9.124;2022-12-17T03:53:04;29.58;;;10.32;;
45694;SDS011;31408;45.468;9.124;2022-12-17T03:55:48;25.17;;;10.75;;
45694;SDS011;31408;45.468;9.124;2022-12-17T03:58:32;28.25;;;10.02;;
45694;SDS011;31408;45.468;9.124;2022-12-17T04:01:16;28.33;;;10.48;;
45694;SDS011;31408;45.468;9.124;2022-12-17T04:04:00;28.70;;;10.23;;
45694;SDS011;31408;45.468;9.124;2022-12-17T04:06:44;27.50;;;10.57;;
45694;SDS011;31408;45.468;9.124;2022-12-17T04:09:28;26.58;;;10.85;;
45694;SDS011;31408;45.468;9.124;2022-12-17T04:12:12;30.58;;;9.68;;
45694;SDS011;31408;45.468;9.124;2022-12-17T04:14:56;26.05;;;10.82;;
45694;SDS011;31408;45.468;9.124;2022-12-17T04:17:40;34.45;;;10.73;;
45694;SDS011;31408;45.468;9.124;2022-12-17T04:20:24;26.73;;;10.43;;
45694;SDS011;31408;45.468;9.124;2022-12-17T04:23:08;30.10;;;12.07;;
45694;SDS011;31408;45.468;9.124;2022-12-17T04:25:57;27.77;;;9.73;;
45694;SDS011;31408;45.468;9.124;2022-12-17T04:28:41;29.95;;;12.10;;
45694;SDS011;31408;45.468;9.124;2022-12-17T04:31:25;26.33;;;9.40;;
45694;SDS011;31408;45.468;9.124;2022-12-17T04:34:09;25.33;;;11.27;;
45694;SDS011;31408;45.468;9.124;2022-12-17T04:36:53;27.02;;;10.80;;
45694;SDS011;31408;45.468;9.124;2022-12-17T04:39:37;28.27;;;10.55;;
45694;SDS011;31408;45.468;9.124;2022-12-17T04:42:21;30.33;;;10.70;;
45694;SDS011;31408;45.468;9.124;2022-12-17T04:45:05;26.30;;;10.80;;
45694;SDS011;31408;45.468;9.124;2022-12-17T04:47:49;30.67;;;11.63;;
45694;SDS011;31408;45.468;9.124;2022-12-17T04:50:34;28.75;;;11.90;;
45694;SDS011;31408;45.468;9.124;2022-12-17T04:53:18;25.80;;;10.63;;
45694;SDS011;31408;45.468;9.124;2022-12-17T04:56:02;30.17;;;11.65;;
45694;SDS011;31408;45.468;9.124;2022-12-17T04:58:46;26.35;;;9.93;;
45694;SDS011;31408;45.468;9.124;2022-12-17T05:01:30;28.50;;;11.35;;
45694;SDS011;31408;45.468;9.124;2022-12-17T05:04:15;29.25;;;10.45;;
45694;SDS011;31408;45.468;9.124;2022-12-17T05:07:00;28.98;;;11.60;;
45694;SDS011;31408;45.468;9.124;2022-12-17T05:09:43;30.48;;;13.73;;
45694;SDS011;31408;45.468;9.124;2022-12-17T05:12:28;29.00;;;12.77;;
45694;SDS011;31408;45.468;9.124;2022-12-17T05:15:12;34.58;;;11.02;;
45694;SDS011;31408;45.468;9.124;2022-12-17T05:18:02;35.30;;;13.07;;
45694;SDS011;31408;45.468;9.124;2022-12-17T05:20:48;28.02;;;9.55;;
45694;SDS011;31408;45.468;9.124;2022-12-17T05:23:32;28.67;;;11.27;;
45694;SDS011;31408;45.468;9.124;2022-12-17T05:26:20;27.10;;;10.38;;
45694;SDS011;31408;45.468;9.124;2022-12-17T05:29:06;25.63;;;10.90;;
45694;SDS011;31408;45.468;9.124;2022-12-17T05:31:50;22.20;;;8.75;;
45694;SDS011;31408;45.468;9.124;2022-12-17T05:34:34;28.73;;;11.77;;
45694;SDS011;31408;45.468;9.124;2022-12-17T05:37:18;28.38;;;12.35;;
45694;SDS011;31408;45.468;9.124;2022-12-17T05:40:03;25.05;;;10.13;;
45694;SDS011;31408;45.468;9.124;2022-12-17T05:42:54;18.13;;;8.57;;
45694;SDS011;31408;45.468;9.124;2022-12-17T05:45:38;22.08;;;8.55;;
45694;SDS011;31408;45.468;9.124;2022-12-17T05:48:23;23.48;;;9.52;;
45694;SDS011;31408;45.468;9.124;2022-12-17T05:51:07;20.98;;;8.13;;
45694;SDS011;31408;45.468;9.124;2022-12-17T05:53:51;25.55;;;9.07;;
45694;SDS011;31408;45.468;9.124;2022-12-17T05:56:35;22.15;;;9.00;;
45694;SDS011;31408;45.468;9.124;2022-12-17T05:59:19;26.13;;;8.43;;
45694;SDS011;31408;45.468;9.124;2022-12-17T06:02:03;19.10;;;7.78;;
45694;SDS011;31408;45.468;9.124;2022-12-17T06:04:47;27.42;;;8.93;;
45694;SDS011;31408;45.468;9.124;2022-12-17T06:07:31;20.15;;;8.43;;
45694;SDS011;31408;45.468;9.124;2022-12-17T06:10:15;20.75;;;7.10;;
45694;SDS011;31408;45.468;9.124;2022-12-17T06:12:59;17.90;;;7.13;;
45694;SDS011;31408;45.468;9.124;2022-12-17T06:15:47;25.98;;;9.88;;
45694;SDS011;31408;45.468;9.124;2022-12-17T06:18:32;23.67;;;8.13;;
45694;SDS011;31408;45.468;9.124;2022-12-17T06:21:16;21.42;;;8.82;;
45694;SDS011;31408;45.468;9.124;2022-12-17T06:24:00;25.15;;;9.32;;
45694;SDS011;31408;45.468;9.124;2022-12-17T06:26:44;26.58;;;9.45;;
45694;SDS011;31408;45.468;9.124;2022-12-17T06:29:28;19.60;;;8.10;;
45694;SDS011;31408;45.468;9.124;2022-12-17T06:32:12;22.13;;;8.82;;
45694;SDS011;31408;45.468;9.124;2022-12-17T06:34:57;21.05;;;8.98;;
45694;SDS011;31408;45.468;9.124;2022-12-17T06:37:40;22.80;;;9.13;;
45694;SDS011;31408;45.468;9.124;2022-12-17T06:40:25;20.33;;;8.32;;
45694;SDS011;31408;45.468;9.124;2022-12-17T06:43:09;25.80;;;9.50;;
45694;SDS011;31408;45.468;9.124;2022-12-17T06:45:53;26.08;;;9.25;;
45694;SDS011;31408;45.468;9.124;2022-12-17T06:48:37;23.67;;;8.40;;
45694;SDS011;31408;45.468;9.124;2022-12-17T06:51:21;24.17;;;9.30;;
45694;SDS011;31408;45.468;9.124;2022-12-17T06:54:05;25.67;;;9.40;;
45694;SDS011;31408;45.468;9.124;2022-12-17T06:56:49;21.90;;;8.40;;
45694;SDS011;31408;45.468;9.124;2022-12-17T06:59:33;24.98;;;9.77;;
45694;SDS011;31408;45.468;9.124;2022-12-17T07:02:17;21.85;;;9.52;;
45694;SDS011;31408;45.468;9.124;2022-12-17T07:05:01;23.73;;;9.18;;
45694;SDS011;31408;45.468;9.124;2022-12-17T07:07:45;24.20;;;10.32;;
45694;SDS011;31408;45.468;9.124;2022-12-17T07:10:29;20.92;;;9.32;;
45694;SDS011;31408;45.468;9.124;2022-12-17T07:13:13;24.73;;;9.80;;
45694;SDS011;31408;45.468;9.124;2022-12-17T07:15:58;21.42;;;9.23;;
45694;SDS011;31408;45.468;9.124;2022-12-17T07:18:42;24.23;;;9.73;;
45694;SDS011;31408;45.468;9.124;2022-12-17T07:21:26;24.95;;;8.73;;
45694;SDS011;31408;45.468;9.124;2022-12-17T07:24:10;24.40;;;10.45;;
45694;SDS011;31408;45.468;9.124;2022-12-17T07:26:58;23.27;;;9.63;;
45694;SDS011;31408;45.468;9.124;2022-12-17T07:29:42;23.48;;;8.55;;
45694;SDS011;31408;45.468;9.124;2022-12-17T07:32:26;24.13;;;11.20;;
45694;SDS011;31408;45.468;9.124;2022-12-17T07:35:10;22.10;;;10.02;;
45694;SDS011;31408;45.468;9.124;2022-12-17T07:37:58;22.75;;;8.35;;
45694;SDS011;31408;45.468;9.124;2022-12-17T07:40:42;23.92;;;10.48;;
45694;SDS011;31408;45.468;9.124;2022-12-17T07:43:27;28.67;;;11.27;;
45694;SDS011;31408;45.468;9.124;2022-12-17T07:46:11;25.08;;;9.30;;
45694;SDS011;31408;45.468;9.124;2022-12-17T07:48:55;29.45;;;11.63;;
45694;SDS011;31408;45.468;9.124;2022-12-17T07:51:39;30.13;;;12.82;;
45694;SDS011;31408;45.468;9.124;2022-12-17T07:54:43;28.98;;;10.68;;
45694;SDS011;31408;45.468;9.124;2022-12-17T07:57:27;24.50;;;10.10;;
45694;SDS011;31408;45.468;9.124;2022-12-17T08:00:11;25.85;;;9.38;;
45694;SDS011;31408;45.468;9.124;2022-12-17T08:02:56;28.02;;;11.43;;
45694;SDS011;31408;45.468;9.124;2022-12-17T08:05:43;29.17;;;9.77;;
45694;SDS011;31408;45.468;9.124;2022-12-17T08:08:28;24.55;;;9.40;;
45694;SDS011;31408;45.468;9.124;2022-12-17T08:11:12;30.17;;;11.52;;
45694;SDS011;31408;45.468;9.124;2022-12-17T08:13:56;26.65;;;9.98;;
45694;SDS011;31408;45.468;9.124;2022-12-17T08:16:40;28.83;;;9.80;;
45694;SDS011;31408;45.468;9.124;2022-12-17T08:19:24;25.45;;;11.50;;
45694;SDS011;31408;45.468;9.124;2022-12-17T08:22:08;21.88;;;10.32;;
45694;SDS011;31408;45.468;9.124;2022-12-17T08:24:52;35.42;;;13.13;;
45694;SDS011;31408;45.468;9.124;2022-12-17T08:27:36;32.08;;;11.35;;
45694;SDS011;31408;45.468;9.124;2022-12-17T08:30:20;28.10;;;12.68;;
45694;SDS011;31408;45.468;9.124;2022-12-17T08:33:04;28.52;;;11.45;;
45694;SDS011;31408;45.468;9.124;2022-12-17T08:35:52;26.63;;;10.60;;
45694;SDS011;31408;45.468;9.124;2022-12-17T08:38:40;32.05;;;11.00;;
45694;SDS011;31408;45.468;9.124;2022-12-17T08:41:24;26.17;;;11.57;;
45694;SDS011;31408;45.468;9.124;2022-12-17T08:44:19;24.13;;;10.27;;
45694;SDS011;31408;45.468;9.124;2022-12-17T08:47:03;27.08;;;10.27;;
45694;SDS011;31408;45.468;9.124;2022-12-17T08:49:47;29.80;;;11.38;;
45694;SDS011;31408;45.468;9.124;2022-12-17T08:52:31;24.55;;;9.52;;
45694;SDS011;31408;45.468;9.124;2022-12-17T08:55:15;28.60;;;9.98;;
45694;SDS011;31408;45.468;9.124;2022-12-17T08:57:59;27.30;;;9.98;;
45694;SDS011;31408;45.468;9.124;2022-12-17T09:00:43;22.80;;;9.73;;
45694;SDS011;31408;45.468;9.124;2022-12-17T09:03:28;29.77;;;10.32;;
45694;SDS011;31408;45.468;9.124;2022-12-17T09:06:12;23.60;;;8.75;;
45694;SDS011;31408;45.468;9.124;2022-12-17T09:08:56;26.63;;;8.93;;
45694;SDS011;31408;45.468;9.124;2022-12-17T09:11:40;23.55;;;10.38;;
45694;SDS011;31408;45.468;9.124;2022-12-17T09:14:25;22.27;;;9.35;;
45694;SDS011;31408;45.468;9.124;2022-12-17T09:17:17;25.83;;;9.68;;
45694;SDS011;31408;45.468;9.124;2022-12-17T09:20:01;24.83;;;10.07;;
45694;SDS011;31408;45.468;9.124;2022-12-17T09:22:45;23.05;;;10.00;;
45694;SDS011;31408;45.468;9.124;2022-12-17T09:25:29;24.67;;;9.73;;
45694;SDS011;31408;45.468;9.124;2022-12-17T09:28:13;19.60;;;8.20;;
45694;SDS011;31408;45.468;9.124;2022-12-17T09:31:00;23.13;;;9.57;;
45694;SDS011;31408;45.468;9.124;2022-12-17T09:33:45;22.15;;;9.43;;
45694;SDS011;31408;45.468;9.124;2022-12-17T09:36:29;24.70;;;9.93;;
45694;SDS011;31408;45.468;9.124;2022-12-17T09:39:13;32.22;;;11.60;;
45694;SDS011;31408;45.468;9.124;2022-12-17T09:45:25;26.45;;;8.98;;
45694;SDS011;31408;45.468;9.124;2022-12-17T09:48:15;22.58;;;9.70;;
45694;SDS011;31408;45.468;9.124;2022-12-17T09:51:04;24.02;;;9.63;;
45694;SDS011;31408;45.468;9.124;2022-12-17T09:53:48;21.50;;;9.73;;
45694;SDS011;31408;45.468;9.124;2022-12-17T09:56:35;25.45;;;10.48;;
45694;SDS011;31408;45.468;9.124;2022-12-17T09:59:20;26.83;;;11.38;;
45694;SDS011;31408;45.468;9.124;2022-12-17T10:02:13;20.65;;;9.23;;
45694;SDS011;31408;45.468;9.124;2022-12-17T10:05:12;19.33;;;8.63;;
45694;SDS011;31408;45.468;9.124;2022-12-17T10:07:58;20.70;;;7.38;;
45694;SDS011;31408;45.468;9.124;2022-12-17T10:10:44;22.65;;;10.50;;
45694;SDS011;31408;45.468;9.124;2022-12-17T10:13:29;18.80;;;8.32;;
45694;SDS011;31408;45.468;9.124;2022-12-17T10:16:26;17.45;;;7.53;;
45694;SDS011;31408;45.468;9.124;2022-12-17T10:19:29;21.15;;;8.02;;
45694;SDS011;31408;45.468;9.124;2022-12-17T10:22:16;23.27;;;9.70;;
45694;SDS011;31408;45.468;9.124;2022-12-17T10:25:05;18.48;;;7.55;;
45694;SDS011;31408;45.468;9.124;2022-12-17T10:27:50;19.08;;;7.72;;
45694;SDS011;31408;45.468;9.124;2022-12-17T10:30:34;23.58;;;9.27;;
45694;SDS011;31408;45.468;9.124;2022-12-17T10:33:19;27.67;;;9.50;;
45694;SDS011;31408;45.468;9.124;2022-12-17T10:36:04;25.05;;;10.65;;
45694;SDS011;31408;45.468;9.124;2022-12-17T10:39:03;27.45;;;11.82;;
45694;SDS011;31408;45.468;9.124;2022-12-17T10:41:48;26.70;;;9.90;;
45694;SDS011;31408;45.468;9.124;2022-12-17T10:44:33;32.47;;;12.90;;
45694;SDS011;31408;45.468;9.124;2022-12-17T10:47:19;32.90;;;13.48;;
45694;SDS011;31408;45.468;9.124;2022-12-17T10:50:15;31.60;;;13.93;;
45694;SDS011;31408;45.468;9.124;2022-12-17T10:53:00;34.97;;;12.57;;
45694;SDS011;31408;45.468;9.124;2022-12-17T10:55:49;40.80;;;14.55;;
45694;SDS011;31408;45.468;9.124;2022-12-17T10:58:35;38.72;;;15.02;;
45694;SDS011;31408;45.468;9.124;2022-12-17T11:01:26;32.15;;;12.45;;
45694;SDS011;31408;45.468;9.124;2022-12-17T11:04:30;27.15;;;10.70;;
45694;SDS011;31408;45.468;9.124;2022-12-17T11:07:20;26.60;;;11.43;;
45694;SDS011;31408;45.468;9.124;2022-12-17T11:10:13;27.38;;;10.45;;
45694;SDS011;31408;45.468;9.124;2022-12-17T11:13:00;23.52;;;9.73;;
45694;SDS011;31408;45.468;9.124;2022-12-17T11:15:48;24.85;;;9.57;;
45694;SDS011;31408;45.468;9.124;2022-12-17T11:18:36;30.15;;;11.75;;
45694;SDS011;31408;45.468;9.124;2022-12-17T11:21:30;26.95;;;11.57;;
45694;SDS011;31408;45.468;9.124;2022-12-17T11:24:20;28.10;;;11.70;;
45694;SDS011;31408;45.468;9.124;2022-12-17T11:27:08;27.55;;;12.32;;
45694;SDS011;31408;45.468;9.124;2022-12-17T11:29:55;25.70;;;11.38;;
45694;SDS011;31408;45.468;9.124;2022-12-17T11:38:46;27.42;;;11.55;;
45694;SDS011;31408;45.468;9.124;2022-12-17T11:57:58;23.67;;;9.13;;
45694;SDS011;31408;45.468;9.124;2022-12-17T12:00:50;21.67;;;9.40;;
45694;SDS011;31408;45.468;9.124;2022-12-17T12:07:01;23.20;;;9.75;;
45694;SDS011;31408;45.468;9.124;2022-12-17T12:10:05;27.58;;;10.73;;
45694;SDS011;31408;45.468;9.124;2022-12-17T12:15:54;25.13;;;10.90;;
45694;SDS011;31408;45.468;9.124;2022-12-17T12:18:53;26.42;;;10.32;;
45694;SDS011;31408;45.468;9.124;2022-12-17T12:31:20;24.83;;;11.23;;
45694;SDS011;31408;45.468;9.124;2022-12-17T12:34:26;27.25;;;10.63;;
45694;SDS011;31408;45.468;9.124;2022-12-17T12:37:13;28.13;;;11.93;;
45694;SDS011;31408;45.468;9.124;2022-12-17T12:43:04;28.85;;;13.45;;
45694;SDS011;31408;45.468;9.124;2022-12-17T12:45:57;32.58;;;12.23;;
45694;SDS011;31408;45.468;9.124;2022-12-17T12:51:53;28.35;;;12.48;;
45694;SDS011;31408;45.468;9.124;2022-12-17T13:00:25;33.03;;;13.40;;
45694;SDS011;31408;45.468;9.124;2022-12-17T13:03:23;29.35;;;11.93;;
45694;SDS011;31408;45.468;9.124;2022-12-17T13:06:56;29.27;;;13.48;;
45694;SDS011;31408;45.468;9.124;2022-12-17T13:11:56;31.33;;;14.75;;
45694;SDS011;31408;45.468;9.124;2022-12-17T13:19:41;32.97;;;14.73;;
45694;SDS011;31408;45.468;9.124;2022-12-17T13:22:08;36.15;;;16.92;;
45694;SDS011;31408;45.468;9.124;2022-12-17T13:24:35;31.85;;;14.80;;
45694;SDS011;31408;45.468;9.124;2022-12-17T13:27:01;41.05;;;18.75;;
45694;SDS011;31408;45.468;9.124;2022-12-17T13:29:34;38.15;;;18.33;;
45694;SDS011;31408;45.468;9.124;2022-12-17T13:34:54;39.22;;;19.33;;
45694;SDS011;31408;45.468;9.124;2022-12-17T13:37:35;36.95;;;17.15;;
45694;SDS011;31408;45.468;9.124;2022-12-17T13:40:24;39.88;;;16.88;;
45694;SDS011;31408;45.468;9.124;2022-12-17T13:42:55;36.55;;;19.10;;
45694;SDS011;31408;45.468;9.124;2022-12-17T13:45:22;38.28;;;17.63;;
45694;SDS011;31408;45.468;9.124;2022-12-17T13:47:52;38.08;;;19.27;;
45694;SDS011;31408;45.468;9.124;2022-12-17T13:50:20;44.88;;;20.50;;
45694;SDS011;31408;45.468;9.124;2022-12-17T13:52:49;43.28;;;21.00;;
45694;SDS011;31408;45.468;9.124;2022-12-17T13:55:20;44.20;;;20.23;;
45694;SDS011;31408;45.468;9.124;2022-12-17T13:57:50;46.38;;;19.40;;
45694;SDS011;31408;45.468;9.124;2022-12-17T14:00:18;45.63;;;20.65;;
45694;SDS011;31408;45.468;9.124;2022-12-17T14:02:52;46.25;;;20.58;;
45694;SDS011;31408;45.468;9.124;2022-12-17T14:06:10;36.13;;;16.83;;
45694;SDS011;31408;45.468;9.124;2022-12-17T14:08:35;49.22;;;22.67;;
45694;SDS011;31408;45.468;9.124;2022-12-17T14:11:04;48.88;;;22.13;;
45694;SDS011;31408;45.468;9.124;2022-12-17T14:13:49;45.20;;;21.92;;
45694;SDS011;31408;45.468;9.124;2022-12-17T14:16:15;42.13;;;22.00;;
45694;SDS011;31408;45.468;9.124;2022-12-17T14:18:44;45.47;;;20.42;;
45694;SDS011;31408;45.468;9.124;2022-12-17T14:21:30;47.10;;;18.92;;
45694;SDS011;31408;45.468;9.124;2022-12-17T14:23:56;49.10;;;23.23;;
45694;SDS011;31408;45.468;9.124;2022-12-17T14:26:22;46.83;;;21.65;;
45694;SDS011;31408;45.468;9.124;2022-12-17T14:28:51;49.58;;;23.52;;
45694;SDS011;31408;45.468;9.124;2022-12-17T14:34:04;50.45;;;25.05;;
45694;SDS011;31408;45.468;9.124;2022-12-17T14:36:41;48.67;;;21.17;;
45694;SDS011;31408;45.468;9.124;2022-12-17T14:39:18;39.78;;;19.20;;
45694;SDS011;31408;45.468;9.124;2022-12-17T14:41:44;49.72;;;19.23;;
45694;SDS011;31408;45.468;9.124;2022-12-17T14:44:28;43.20;;;20.20;;
45694;SDS011;31408;45.468;9.124;2022-12-17T14:52:22;50.33;;;22.08;;
45694;SDS011;31408;45.468;9.124;2022-12-17T14:54:58;46.90;;;20.45;;
45694;SDS011;31408;45.468;9.124;2022-12-17T14:57:24;45.70;;;21.58;;
45694;SDS011;31408;45.468;9.124;2022-12-17T14:59:50;50.65;;;21.48;;
45694;SDS011;31408;45.468;9.124;2022-12-17T15:02:26;48.65;;;22.58;;
45694;SDS011;31408;45.468;9.124;2022-12-17T15:04:55;47.97;;;23.40;;
45694;SDS011;31408;45.468;9.124;2022-12-17T15:07:28;50.67;;;22.88;;
45694;SDS011;31408;45.468;9.124;2022-12-17T15:09:55;58.97;;;24.85;;
45694;SDS011;31408;45.468;9.124;2022-12-17T15:12:21;60.05;;;24.95;;
45694;SDS011;31408;45.468;9.124;2022-12-17T15:14:48;51.03;;;21.98;;
45694;SDS011;31408;45.468;9.124;2022-12-17T15:17:14;52.65;;;21.33;;
45694;SDS011;31408;45.468;9.124;2022-12-17T15:19:40;47.65;;;20.38;;
45694;SDS011;31408;45.468;9.124;2022-12-17T15:22:08;54.33;;;22.15;;
45694;SDS011;31408;45.468;9.124;2022-12-17T15:24:37;42.78;;;18.08;;
45694;SDS011;31408;45.468;9.124;2022-12-17T15:27:02;42.22;;;17.25;;
45694;SDS011;31408;45.468;9.124;2022-12-17T15:29:28;42.25;;;18.23;;
45694;SDS011;31408;45.468;9.124;2022-12-17T15:31:53;35.55;;;15.18;;
45694;SDS011;31408;45.468;9.124;2022-12-17T15:34:19;37.92;;;16.73;;
45694;SDS011;31408;45.468;9.124;2022-12-17T15:36:44;32.20;;;14.55;;
45694;SDS011;31408;45.468;9.124;2022-12-17T15:39:09;31.65;;;14.80;;
45694;SDS011;31408;45.468;9.124;2022-12-17T15:41:35;32.45;;;13.77;;
45694;SDS011;31408;45.468;9.124;2022-12-17T15:44:19;36.28;;;14.27;;
45694;SDS011;31408;45.468;9.124;2022-12-17T15:46:44;36.22;;;15.40;;
45694;SDS011;31408;45.468;9.124;2022-12-17T15:49:10;40.05;;;17.38;;
45694;SDS011;31408;45.468;9.124;2022-12-17T15:51:35;31.08;;;15.52;;
45694;SDS011;31408;45.468;9.124;2022-12-17T15:54:01;33.70;;;15.52;;
45694;SDS011;31408;45.468;9.124;2022-12-17T15:56:27;42.80;;;18.45;;
45694;SDS011;31408;45.468;9.124;2022-12-17T15:58:56;37.03;;;18.13;;
45694;SDS011;31408;45.468;9.124;2022-12-17T16:01:22;41.00;;;16.65;;
45694;SDS011;31408;45.468;9.124;2022-12-17T16:03:47;38.40;;;16.23;;
45694;SDS011;31408;45.468;9.124;2022-12-17T16:06:16;36.50;;;15.63;;
45694;SDS011;31408;45.468;9.124;2022-12-17T16:08:41;42.17;;;15.95;;
45694;SDS011;31408;45.468;9.124;2022-12-17T16:11:07;34.28;;;15.43;;
45694;SDS011;31408;45.468;9.124;2022-12-17T16:13:34;36.28;;;16.85;;
45694;SDS011;31408;45.468;9.124;2022-12-17T16:16:00;31.23;;;14.48;;
45694;SDS011;31408;45.468;9.124;2022-12-17T16:18:26;35.92;;;13.98;;
45694;SDS011;31408;45.468;9.124;2022-12-17T16:20:51;35.80;;;14.52;;
45694;SDS011;31408;45.468;9.124;2022-12-17T16:23:17;29.15;;;13.73;;
45694;SDS011;31408;45.468;9.124;2022-12-17T16:25:43;37.90;;;14.88;;
45694;SDS011;31408;45.468;9.124;2022-12-17T16:28:09;31.85;;;14.50;;
45694;SDS011;31408;45.468;9.124;2022-12-17T16:30:34;28.63;;;13.93;;
45694;SDS011;31408;45.468;9.124;2022-12-17T16:33:00;29.70;;;13.82;;
45694;SDS011;31408;45.468;9.124;2022-12-17T16:35:26;31.15;;;14.25;;
45694;SDS011;31408;45.468;9.124;2022-12-17T16:37:52;27.85;;;12.90;;
45694;SDS011;31408;45.468;9.124;2022-12-17T16:40:18;31.58;;;13.70;;
45694;SDS011;31408;45.468;9.124;2022-12-17T16:42:44;29.98;;;12.73;;
45694;SDS011;31408;45.468;9.124;2022-12-17T16:45:10;28.88;;;11.77;;
45694;SDS011;31408;45.468;9.124;2022-12-17T16:47:35;28.58;;;14.70;;
45694;SDS011;31408;45.468;9.124;2022-12-17T16:50:00;31.65;;;13.52;;
45694;SDS011;31408;45.468;9.124;2022-12-17T16:52:26;30.30;;;13.52;;
45694;SDS011;31408;45.468;9.124;2022-12-17T16:54:51;28.83;;;12.73;;
45694;SDS011;31408;45.468;9.124;2022-12-17T16:57:17;34.65;;;13.73;;
45694;SDS011;31408;45.468;9.124;2022-12-17T16:59:42;31.27;;;13.23;;
45694;SDS011;31408;45.468;9.124;2022-12-17T17:02:11;24.05;;;12.88;;
45694;SDS011;31408;45.468;9.124;2022-12-17T17:04:38;29.83;;;13.73;;
45694;SDS011;31408;45.468;9.124;2022-12-17T17:07:03;33.58;;;14.82;;
45694;SDS011;31408;45.468;9.124;2022-12-17T17:09:29;30.20;;;13.40;;